Time;durP1;ratioP1;P1;durP2;ratioP2;P2;SDS_P1;SDS_P2;PMS_P1;PMS_P2;Temp;Humidity;BMP_temperature;BMP_pressure;BME280_temperature;BME280_humidity;BME280_pressure;Samples;Min_cycle;Max_cycle;Signal;HPM_P1;HPM_P2
2021/05/30 00:03:46;;;;;;;6.37;5.75;;;;;;;11.92;90.24;100860.73;2847624;83;21032;-65
2021/05/30 00:07:49;;;;;;;7.53;5.53;;;;;;;11.94;89.11;100865.93;2847879;83;21081;-66
2021/05/30 00:11:51;;;;;;;11.10;6.67;;;;;;;11.79;89.04;100866.19;2847744;82;21049;-65
2021/05/30 00:15:54;;;;;;;9.73;6.47;;;;;;;11.68;89.70;100866.98;2847622;82;21074;-65
2021/05/30 00:19:56;;;;;;;10.65;7.22;;;;;;;11.67;90.00;100862.62;2847852;82;21124;-66
2021/05/30 00:23:58;;;;;;;10.00;6.80;;;;;;;11.65;90.02;100867.23;2847520;83;21088;-66
2021/05/30 00:28:00;;;;;;;16.32;6.62;;;;;;;11.58;89.86;100861.52;2847674;82;21897;-65
2021/05/30 00:32:02;;;;;;;6.75;4.87;;;;;;;11.55;90.18;100872.42;2847788;82;21037;-65
2021/05/30 00:36:05;;;;;;;10.15;6.70;;;;;;;11.48;90.10;100875.20;2847795;83;21020;-64
2021/05/30 00:40:07;;;;;;;8.93;7.17;;;;;;;11.40;90.56;100878.95;2847446;83;21076;-65
2021/05/30 00:44:29;;;;;;;9.38;6.90;;;;;;;11.37;90.85;100880.48;2847326;83;21045;-65
2021/05/30 00:48:31;;;;;;;7.95;6.70;;;;;;;11.34;90.97;100878.05;2847148;83;21677;-65
2021/05/30 00:52:34;;;;;;;11.93;7.47;;;;;;;11.35;91.01;100884.61;2847288;83;22259;-64
2021/05/30 00:56:36;;;;;;;10.15;8.55;;;;;;;11.34;91.25;100880.25;2847306;82;21053;-66
2021/05/30 01:00:37;;;;;;;16.30;8.63;;;;;;;11.37;91.27;100877.82;2847424;82;21072;-65
2021/05/30 01:04:39;;;;;;;12.60;8.90;;;;;;;11.33;91.42;100883.02;2847436;83;21077;-65
2021/05/30 01:08:41;;;;;;;14.28;8.48;;;;;;;11.33;91.75;100887.02;2847573;82;21612;-65
2021/05/30 01:12:45;;;;;;;17.42;9.13;;;;;;;11.31;91.59;100893.81;2847474;82;21041;-66
2021/05/30 01:16:50;;;;;;;9.80;8.75;;;;;;;11.33;91.73;100895.00;2847267;82;21021;-65
2021/05/30 01:20:55;;;;;;;12.90;8.95;;;;;;;11.38;91.83;100896.36;2847579;82;21092;-64
2021/05/30 01:24:56;;;;;;;10.18;8.60;;;;;;;11.36;91.73;100888.97;2847464;82;21093;-64
2021/05/30 01:28:58;;;;;;;9.08;8.13;;;;;;;11.34;91.91;100898.03;2847510;82;21089;-64
2021/05/30 01:33:00;;;;;;;11.08;8.53;;;;;;;11.34;92.31;100890.91;2847786;82;21578;-65
2021/05/30 01:37:03;;;;;;;19.67;8.45;;;;;;;11.38;92.17;100891.50;2847725;82;21084;-65
2021/05/30 01:41:06;;;;;;;11.63;9.23;;;;;;;11.38;92.33;100894.17;2847465;82;21048;-66
2021/05/30 01:45:09;;;;;;;11.70;8.70;;;;;;;11.41;92.38;100896.62;2847362;83;21040;-63
2021/05/30 01:49:13;;;;;;;13.10;7.67;;;;;;;11.45;92.40;100894.09;2847525;82;21053;-66
2021/05/30 01:53:19;;;;;;;10.25;7.00;;;;;;;11.50;92.23;100901.23;2847563;82;21109;-66
2021/05/30 01:57:22;;;;;;;10.98;8.40;;;;;;;11.54;92.06;100900.53;2847693;82;21621;-65
2021/05/30 02:01:24;;;;;;;18.73;7.97;;;;;;;11.56;91.93;100914.08;2847614;82;21052;-65
2021/05/30 02:05:25;;;;;;;9.60;8.08;;;;;;;11.57;92.02;100906.95;2847506;82;21060;-66
2021/05/30 02:09:29;;;;;;;9.85;7.78;;;;;;;11.55;91.79;100908.39;2847766;82;20997;-64
2021/05/30 02:13:31;;;;;;;9.65;7.33;;;;;;;11.62;92.04;100911.94;2847316;82;21072;-65
2021/05/30 02:17:37;;;;;;;13.28;7.25;;;;;;;11.67;91.80;100909.77;2847148;82;21159;-65
2021/05/30 02:21:44;;;;;;;10.57;7.20;;;;;;;11.75;91.30;100906.52;2847740;82;21061;-64
2021/05/30 02:25:46;;;;;;;15.13;7.75;;;;;;;11.79;91.08;100918.63;2847161;82;22246;-65
2021/05/30 02:29:48;;;;;;;10.78;7.10;;;;;;;11.80;90.32;100912.33;2842580;82;21100;-65
2021/05/30 02:33:50;;;;;;;9.63;8.08;;;;;;;11.74;89.80;100908.31;2839792;83;21563;-64
2021/05/30 02:37:52;;;;;;;9.08;6.58;;;;;;;11.68;89.52;100909.62;2839831;83;21081;-64
2021/05/30 02:41:54;;;;;;;8.45;6.97;;;;;;;11.64;89.24;100907.34;2839796;83;21069;-65
2021/05/30 02:45:56;;;;;;;12.60;7.12;;;;;;;11.59;89.10;100906.34;2839418;82;21084;-66
2021/05/30 02:50:00;;;;;;;8.03;6.55;;;;;;;11.51;88.70;100907.43;2839599;82;21038;-66
2021/05/30 02:54:04;;;;;;;10.60;7.28;;;;;;;11.43;88.83;100909.34;2840077;82;21665;-64
2021/05/30 02:58:06;;;;;;;7.15;5.75;;;;;;;11.35;89.12;100915.71;2839474;83;21033;-65
2021/05/30 03:02:08;;;;;;;9.53;8.03;;;;;;;11.31;89.30;100927.56;2839656;82;21092;-65
2021/05/30 03:06:10;;;;;;;7.45;6.62;;;;;;;11.29;89.39;100936.98;2839683;83;21073;-65
2021/05/30 03:10:13;;;;;;;8.83;5.72;;;;;;;11.30;89.36;100936.05;2829417;83;21057;-65
2021/05/30 03:14:15;;;;;;;12.23;6.20;;;;;;;11.28;89.27;100942.81;2839967;82;21088;-65
2021/05/30 03:18:19;;;;;;;9.15;5.90;;;;;;;11.25;89.54;100944.38;2839736;83;21049;-65
2021/05/30 03:22:21;;;;;;;6.85;6.10;;;;;;;11.25;89.61;100946.17;2839704;82;21064;-65
2021/05/30 03:26:23;;;;;;;8.83;6.47;;;;;;;11.18;89.85;100949.77;2839925;83;21112;-65
2021/05/30 03:30:25;;;;;;;8.45;7.08;;;;;;;11.15;90.38;100950.00;2839677;82;21069;-65
2021/05/30 03:34:27;;;;;;;8.35;5.22;;;;;;;11.11;90.29;100951.20;2839855;82;21065;-65
2021/05/30 03:38:31;;;;;;;11.00;6.67;;;;;;;11.03;90.45;100949.09;2839874;83;21069;-65
2021/05/30 03:42:36;;;;;;;6.00;5.40;;;;;;;11.04;90.92;100949.96;2840041;83;21053;-65
2021/05/30 03:46:37;;;;;;;11.45;6.78;;;;;;;11.05;90.56;100955.16;2839404;82;21076;-66
2021/05/30 03:50:39;;;;;;;6.45;5.03;;;;;;;11.04;90.50;100956.12;2839788;83;21049;-65
2021/05/30 03:54:41;;;;;;;6.05;5.47;;;;;;;11.06;90.46;100961.34;2839621;82;21041;-66
2021/05/30 03:58:43;;;;;;;4.97;4.47;;;;;;;11.00;90.41;100960.84;2839551;82;21101;-66
2021/05/30 04:02:46;;;;;;;9.33;6.45;;;;;;;11.00;90.15;100960.84;2839781;83;21021;-66
2021/05/30 04:06:48;;;;;;;7.37;5.28;;;;;;;10.95;90.19;100965.63;2839524;83;21084;-64
2021/05/30 04:10:51;;;;;;;6.85;4.55;;;;;;;10.95;90.37;100968.29;2840065;82;21069;-65
2021/05/30 04:14:53;;;;;;;11.75;5.22;;;;;;;10.97;90.34;100971.69;2839971;83;21061;-64
2021/05/30 04:18:55;;;;;;;5.05;4.47;;;;;;;10.92;90.35;100968.52;2839532;82;21054;-66
2021/05/30 04:22:56;;;;;;;11.60;5.15;;;;;;;10.96;90.62;100971.81;2839776;82;21021;-65
2021/05/30 04:26:58;;;;;;;5.15;4.65;;;;;;;10.99;90.21;100976.41;2839659;83;21121;-65
2021/05/30 04:31:01;;;;;;;4.85;4.35;;;;;;;11.03;90.03;100984.20;2845528;82;21053;-67
2021/05/30 04:35:04;;;;;;;5.65;4.40;;;;;;;11.00;89.55;100986.59;2847660;82;20993;-65
2021/05/30 04:39:06;;;;;;;5.12;4.62;;;;;;;10.99;89.22;100996.37;2847156;82;21037;-64
2021/05/30 04:43:07;;;;;;;6.97;4.78;;;;;;;10.98;89.21;100988.02;2847260;82;21080;-65
2021/05/30 04:47:10;;;;;;;4.30;3.90;;;;;;;10.99;89.14;100997.71;2847526;83;21139;-65
2021/05/30 04:51:14;;;;;;;5.40;4.87;;;;;;;11.05;89.13;100997.75;2847419;82;21017;-64
2021/05/30 04:55:16;;;;;;;5.92;4.97;;;;;;;11.07;88.71;101008.30;2847090;83;21084;-64
2021/05/30 04:59:18;;;;;;;5.55;5.10;;;;;;;11.07;88.21;101005.14;2847220;82;21088;-66
2021/05/30 05:03:21;;;;;;;4.85;3.92;;;;;;;11.06;87.96;101010.10;2847289;82;21061;-65
2021/05/30 05:07:22;;;;;;;7.70;5.42;;;;;;;11.05;87.67;101020.38;2847325;82;21041;-66
2021/05/30 05:11:24;;;;;;;11.40;5.65;;;;;;;11.02;87.96;101011.79;2847334;82;21088;-64
2021/05/30 05:15:26;;;;;;;6.20;5.70;;;;;;;11.00;88.20;101011.42;2847402;82;21602;-65
2021/05/30 05:19:30;;;;;;;6.90;5.70;;;;;;;11.03;88.08;101013.48;2847356;82;21052;-64
2021/05/30 05:23:33;;;;;;;6.12;5.10;;;;;;;11.04;87.72;101012.52;2847088;82;21132;-66
2021/05/30 05:27:34;;;;;;;7.78;5.85;;;;;;;11.06;87.67;101023.91;2846937;82;21135;-65
2021/05/30 05:31:36;;;;;;;7.10;6.00;;;;;;;11.04;87.22;101016.52;2840806;82;21081;-65
2021/05/30 05:35:38;;;;;;;7.15;5.97;;;;;;;10.98;86.86;101022.63;2839920;82;21034;-65
2021/05/30 05:39:40;;;;;;;6.97;6.28;;;;;;;10.94;86.93;101015.83;2839511;83;21101;-65
2021/05/30 05:43:42;;;;;;;8.38;7.10;;;;;;;10.85;87.30;101021.34;2839572;83;21104;-66
2021/05/30 05:47:45;;;;;;;6.70;6.10;;;;;;;10.88;87.67;101026.94;2839408;83;21625;-64
2021/05/30 05:51:47;;;;;;;11.70;6.75;;;;;;;10.92;87.94;101036.89;2839497;83;21096;-65
2021/05/30 05:55:50;;;;;;;6.40;5.40;;;;;;;10.93;87.91;101032.77;2840010;82;21612;-64
2021/05/30 05:59:52;;;;;;;7.80;6.03;;;;;;;10.97;88.20;101032.91;2839920;82;21069;-64
2021/05/30 06:03:54;;;;;;;7.20;6.55;;;;;;;11.02;88.86;101039.74;2840051;83;21621;-65
2021/05/30 06:07:57;;;;;;;7.47;6.40;;;;;;;11.16;89.19;101042.23;2839674;83;21014;-65
2021/05/30 06:11:59;;;;;;;8.98;6.47;;;;;;;11.31;88.87;101039.43;2839854;82;21065;-66
2021/05/30 06:16:05;;;;;;;8.53;6.35;;;;;;;11.48;89.00;101044.38;2839285;82;21465;-66
2021/05/30 06:20:08;;;;;;;8.95;7.05;;;;;;;11.67;88.24;101037.68;2839381;83;21094;-67
2021/05/30 06:24:11;;;;;;;11.33;6.25;;;;;;;11.79;87.24;101044.77;2839373;82;21657;-67
2021/05/30 06:28:13;;;;;;;6.62;5.92;;;;;;;11.90;86.62;101048.42;2839515;82;21080;-67
2021/05/30 06:32:16;;;;;;;6.20;5.67;;;;;;;11.95;85.52;101053.78;2839616;82;21093;-66
2021/05/30 06:36:18;;;;;;;8.90;6.97;;;;;;;11.97;84.87;101062.98;2839485;82;21085;-66
2021/05/30 06:40:20;;;;;;;7.58;5.92;;;;;;;12.07;85.46;101064.50;2839268;83;21106;-66
2021/05/30 06:44:22;;;;;;;7.40;6.20;;;;;;;12.18;85.79;101071.21;2839709;83;21096;-66
2021/05/30 06:48:24;;;;;;;6.95;5.87;;;;;;;12.26;84.92;101074.63;2839447;83;21577;-66
2021/05/30 06:52:28;;;;;;;7.55;5.65;;;;;;;12.30;84.22;101074.75;2839730;82;21073;-67
2021/05/30 06:56:30;;;;;;;10.55;6.58;;;;;;;12.36;84.20;101078.27;2839639;83;21069;-64
2021/05/30 07:00:36;;;;;;;8.33;6.10;;;;;;;12.41;83.67;101077.46;2829304;83;21068;-66
2021/05/30 07:04:38;;;;;;;5.87;5.30;;;;;;;12.52;83.71;101075.77;2839399;82;21089;-66
2021/05/30 07:08:42;;;;;;;4.95;4.55;;;;;;;12.58;82.48;101075.30;2839726;83;21072;-67
2021/05/30 07:12:43;;;;;;;5.35;4.30;;;;;;;12.67;81.26;101075.91;2839577;82;21104;-65
2021/05/30 07:16:45;;;;;;;6.67;5.97;;;;;;;12.88;81.01;101080.52;2839649;82;21069;-65
2021/05/30 07:20:49;;;;;;;8.13;5.62;;;;;;;13.11;80.46;101084.05;2839308;82;21089;-66
2021/05/30 07:24:55;;;;;;;4.15;3.75;;;;;;;13.32;79.72;101092.64;2839551;83;21092;-65
2021/05/30 07:28:57;;;;;;;4.97;4.47;;;;;;;13.62;78.19;101098.31;2839419;82;21025;-68
2021/05/30 07:33:06;;;;;;;5.72;5.17;;;;;;;13.98;78.93;101090.89;2847061;82;21108;-66
2021/05/30 07:37:04;;;;;;;6.33;5.72;;;;;;;14.28;76.48;101095.96;2846327;82;21104;-66
2021/05/30 07:41:07;;;;;;;3.67;3.37;;;;;;;14.34;75.96;101090.58;2847293;82;21036;-67
2021/05/30 07:45:10;;;;;;;5.60;4.03;;;;;;;14.28;73.81;101100.84;2847715;82;21064;-66
2021/05/30 07:49:12;;;;;;;5.45;4.10;;;;;;;14.70;74.95;101098.61;2847828;82;21076;-66
2021/05/30 07:53:14;;;;;;;7.30;3.87;;;;;;;15.17;73.61;101099.98;2848029;82;21040;-64
2021/05/30 07:57:17;;;;;;;4.10;3.70;;;;;;;15.34;72.42;101103.00;2847567;82;21053;-65
2021/05/30 08:01:19;;;;;;;4.55;3.25;;;;;;;15.30;68.47;101094.84;2847690;82;21048;-65
2021/05/30 08:05:21;;;;;;;4.92;4.42;;;;;;;15.17;71.02;101109.36;2847763;83;21064;-65
2021/05/30 08:09:24;;;;;;;4.90;4.40;;;;;;;15.10;70.87;101103.69;2847601;83;21029;-64
2021/05/30 08:13:25;;;;;;;5.28;4.70;;;;;;;14.93;71.33;101109.68;2847898;82;21076;-64
2021/05/30 08:17:28;;;;;;;4.55;3.77;;;;;;;14.97;71.27;101109.28;2847525;82;21097;-64
2021/05/30 08:21:31;;;;;;;6.58;4.62;;;;;;;15.17;71.68;101102.66;2848255;82;21036;-64
2021/05/30 08:25:33;;;;;;;4.83;3.55;;;;;;;15.65;70.47;101101.55;2848251;82;21096;-63
2021/05/30 08:29:36;;;;;;;3.75;3.52;;;;;;;15.84;68.63;101098.89;2848243;82;21979;-63
2021/05/30 08:33:37;;;;;;;7.03;4.40;;;;;;;15.78;67.29;101109.33;2848393;82;21061;-65
2021/05/30 08:37:43;;;;;;;5.83;4.50;;;;;;;15.60;67.87;101109.18;2848052;83;21100;-64
2021/05/30 08:41:43;;;;;;;6.30;3.55;;;;;;;15.49;68.75;101108.30;2847756;82;21127;-64
2021/05/30 08:45:46;;;;;;;4.53;3.85;;;;;;;15.23;67.82;101117.33;2847883;82;21041;-64
2021/05/30 08:49:49;;;;;;;4.22;3.83;;;;;;;14.91;70.33;101132.57;2847705;82;21152;-64
2021/05/30 08:53:51;;;;;;;5.72;4.03;;;;;;;14.61;70.65;101128.87;2847879;82;21060;-64
2021/05/30 08:57:54;;;;;;;4.65;3.75;;;;;;;14.33;72.16;101135.22;2847976;83;21108;-64
2021/05/30 09:02:09;;;;;;;3.95;3.58;;;;;;;14.14;73.03;101129.23;2847407;82;21102;-64
2021/05/30 09:06:19;;;;;;;4.92;4.42;;;;;;;14.12;72.98;101136.05;2846985;82;21585;-64
2021/05/30 09:10:27;;;;;;;4.12;3.47;;;;;;;14.21;72.80;101142.96;2847811;82;22137;-63
2021/05/30 09:14:30;;;;;;;4.45;3.65;;;;;;;14.28;72.76;101148.14;2847542;82;21052;-64
2021/05/30 09:18:34;;;;;;;3.70;3.40;;;;;;;14.31;72.19;101143.87;2847365;82;21463;-64
2021/05/30 09:22:42;;;;;;;6.33;4.42;;;;;;;14.27;72.08;101147.31;2847682;83;21136;-64
2021/05/30 09:26:44;;;;;;;4.65;4.10;;;;;;;14.18;72.40;101156.59;2847623;82;21088;-64
2021/05/30 09:30:47;;;;;;;3.85;3.42;;;;;;;14.24;73.26;101154.73;2845078;82;21089;-64
2021/05/30 09:34:50;;;;;;;4.22;3.65;;;;;;;14.37;72.13;101160.77;2839649;83;21076;-65
2021/05/30 09:39:06;;;;;;;4.47;3.42;;;;;;;14.59;71.80;101158.95;2839859;82;21025;-63
2021/05/30 09:43:14;;;;;;;4.15;3.75;;;;;;;14.98;72.59;101146.28;2839556;83;21049;-63
2021/05/30 09:47:46;;;;;;;6.55;4.08;;;;;;;15.27;70.06;101142.38;2840026;82;21096;-64
2021/05/30 09:51:48;;;;;;;4.20;3.60;;;;;;;15.46;69.68;101142.09;2839919;82;21065;-63
2021/05/30 09:55:50;;;;;;;6.80;4.42;;;;;;;15.49;69.20;101140.47;2840221;82;21562;-63
2021/05/30 09:59:52;;;;;;;4.72;3.47;;;;;;;15.53;68.92;101141.92;2840220;82;21109;-64
2021/05/30 10:03:56;;;;;;;3.30;3.00;;;;;;;15.64;68.60;101144.11;2839783;83;21622;-64
2021/05/30 10:07:59;;;;;;;4.42;3.72;;;;;;;15.79;68.16;101144.08;2840510;82;21057;-64
2021/05/30 10:12:00;;;;;;;5.60;3.58;;;;;;;16.12;68.07;101140.67;2840077;83;21009;-64
2021/05/30 10:16:03;;;;;;;3.27;2.98;;;;;;;16.29;68.34;101150.32;2840611;82;21050;-64
2021/05/30 10:20:10;;;;;;;4.75;3.90;;;;;;;16.40;66.84;101147.98;2840744;83;21069;-64
2021/05/30 10:24:13;;;;;;;4.83;2.98;;;;;;;16.41;66.33;101147.85;2830368;83;21100;-64
2021/05/30 10:28:19;;;;;;;3.40;2.98;;;;;;;16.45;65.82;101144.88;2840891;82;21026;-62
2021/05/30 10:32:20;;;;;;;2.67;2.45;;;;;;;16.55;66.33;101151.09;2845212;82;21153;-61
2021/05/30 10:36:23;;;;;;;4.65;2.60;;;;;;;16.72;65.60;101150.00;2848443;82;21073;-61
2021/05/30 10:40:35;;;;;;;1.82;1.72;;;;;;;16.79;65.45;101149.77;2848334;83;21088;-62
2021/05/30 10:45:00;;;;;;;2.87;2.62;;;;;;;16.82;65.15;101150.81;2848313;82;21072;-61
2021/05/30 10:49:09;;;;;;;2.35;2.02;;;;;;;16.93;66.09;101142.59;2848186;82;21022;-61
2021/05/30 10:53:38;;;;;;;4.65;2.77;;;;;;;16.97;64.58;101148.49;2848232;83;21096;-61
2021/05/30 10:57:47;;;;;;;2.52;1.92;;;;;;;16.92;64.91;101150.78;2848176;82;21053;-64
2021/05/30 11:01:50;;;;;;;2.35;1.75;;;;;;;17.08;64.15;101148.84;2849386;83;21092;-64
2021/05/30 11:05:57;;;;;;;3.62;2.00;;;;;;;17.24;63.87;101147.70;2849161;82;21088;-66
2021/05/30 11:10:02;;;;;;;2.37;1.95;;;;;;;17.35;63.33;101139.94;2849549;82;21076;-63
2021/05/30 11:14:16;;;;;;;3.53;2.83;;;;;;;17.40;62.58;101132.78;2850092;82;21061;-65
2021/05/30 11:18:19;;;;;;;3.33;2.45;;;;;;;17.35;63.53;101139.94;2848332;82;21773;-64
2021/05/30 11:22:21;;;;;;;2.62;2.20;;;;;;;17.27;63.41;101136.65;2849392;82;21017;-65
2021/05/30 11:26:29;;;;;;;2.10;1.90;;;;;;;17.38;62.56;101146.88;2849625;83;21077;-65
2021/05/30 11:30:48;;;;;;;4.85;2.35;;;;;;;17.32;62.70;101140.25;2848660;82;21057;-64
2021/05/30 11:34:51;;;;;;;3.98;2.33;;;;;;;17.37;62.23;101147.88;2841474;83;21108;-64
2021/05/30 11:39:11;;;;;;;2.80;2.52;;;;;;;17.36;62.80;101144.84;2841597;82;21053;-65
2021/05/30 11:43:19;;;;;;;2.00;1.80;;;;;;;17.24;62.63;101145.02;2841443;82;21093;-64
2021/05/30 11:47:23;;;;;;;3.15;2.35;;;;;;;17.19;62.41;101141.94;2840776;83;21036;-64
2021/05/30 11:51:46;;;;;;;4.30;2.30;;;;;;;17.22;64.89;101138.95;2840988;82;21049;-64
2021/05/30 11:55:48;;;;;;;3.05;1.92;;;;;;;17.41;62.64;101130.44;2841298;82;21519;-64
2021/05/30 12:00:10;;;;;;;4.05;2.05;;;;;;;17.71;64.23;101132.46;2841588;82;21141;-63
2021/05/30 12:04:40;;;;;;;2.17;2.02;;;;;;;17.72;61.71;101127.42;2840732;82;21073;-63
2021/05/30 12:08:53;;;;;;;3.25;2.42;;;;;;;17.72;63.11;101135.50;2840050;83;21530;-64
2021/05/30 12:12:55;;;;;;;3.08;2.12;;;;;;;17.94;62.64;101134.70;2840801;81;21084;-63
2021/05/30 12:16:57;;;;;;;3.00;1.82;;;;;;;18.03;62.68;101142.38;2841653;83;21084;-64
2021/05/30 12:21:00;;;;;;;2.47;1.77;;;;;;;17.95;60.98;101141.77;2842279;83;21100;-68
2021/05/30 12:25:03;;;;;;;2.20;2.08;;;;;;;17.75;61.18;101133.84;2842755;83;21037;-65
2021/05/30 12:29:05;;;;;;;2.45;2.05;;;;;;;17.36;62.99;101137.59;2841789;82;21060;-65
2021/05/30 12:33:06;;;;;;;2.72;1.90;;;;;;;17.12;65.01;101136.82;2846345;82;21104;-66
2021/05/30 12:37:09;;;;;;;1.98;1.70;;;;;;;17.05;65.73;101145.11;2849814;82;21096;-65
2021/05/30 12:41:14;;;;;;;2.47;1.87;;;;;;;17.06;64.99;101144.11;2849595;83;21044;-64
2021/05/30 12:45:17;;;;;;;4.92;1.42;;;;;;;17.02;64.89;101137.34;2849420;82;21052;-64
2021/05/30 12:49:19;;;;;;;8.13;4.15;;;;;;;17.07;65.82;101133.22;2848992;82;21529;-63
2021/05/30 12:53:33;;;;;;;2.75;2.47;;;;;;;17.15;65.06;101132.48;2848993;83;21040;-63
2021/05/30 12:57:49;;;;;;;14.98;4.85;;;;;;;17.21;63.79;101129.19;2848784;82;21056;-62
2021/05/30 13:01:55;;;;;;;3.02;2.02;;;;;;;17.34;63.84;101128.02;2848885;82;21045;-63
2021/05/30 13:05:57;;;;;;;4.17;2.05;;;;;;;17.49;62.84;101130.55;2849253;82;21037;-62
2021/05/30 13:10:06;;;;;;;2.40;1.90;;;;;;;17.73;63.28;101129.11;2849321;82;21155;-62
2021/05/30 13:14:08;;;;;;;3.05;1.90;;;;;;;17.87;61.13;101126.88;2848956;82;21060;-63
2021/05/30 13:18:11;;;;;;;3.42;1.25;;;;;;;18.04;63.27;101126.06;2849216;82;21065;-63
2021/05/30 13:22:13;;;;;;;1.27;1.12;;;;;;;18.12;60.47;101119.42;2849254;82;21037;-64
2021/05/30 13:31:17;;;;;;;1.70;1.50;;;;;;;18.00;61.42;101121.96;2849970;82;21064;-63
2021/05/30 13:35:20;;;;;;;1.40;1.30;;;;;;;17.95;60.73;101114.86;2850546;82;21032;-63
2021/05/30 13:40:00;;;;;;;1.57;1.22;;;;;;;17.96;61.13;101111.16;2850709;82;21097;-63
2021/05/30 13:44:06;;;;;;;4.37;1.60;;;;;;;18.00;60.36;101105.81;2853292;82;21033;-62
2021/05/30 13:48:38;;;;;;;2.22;1.98;;;;;;;18.03;60.45;101096.11;2871472;82;21881;-62
2021/05/30 13:52:40;;;;;;;1.65;0.82;;;;;;;18.07;58.07;101099.34;2870333;82;21073;-60
2021/05/30 13:57:21;;;;;;;2.50;1.42;;;;;;;18.16;60.08;101096.22;2870527;83;21570;-61
2021/05/30 14:01:24;;;;;;;2.00;1.12;;;;;;;18.30;59.21;101092.97;2870472;83;21029;-60
2021/05/30 14:05:26;;;;;;;1.50;1.20;;;;;;;18.44;57.43;101083.95;2870771;83;21089;-60
2021/05/30 14:10:05;;;;;;;3.12;1.45;;;;;;;18.48;57.66;101085.35;2871121;82;21089;-60
2021/05/30 14:14:07;;;;;;;1.10;1.00;;;;;;;18.63;59.01;101075.66;2870587;82;21064;-61
2021/05/30 14:18:45;;;;;;;1.65;1.27;;;;;;;18.84;57.95;101073.06;2871033;83;21112;-61
2021/05/30 14:22:47;;;;;;;5.33;1.07;;;;;;;19.12;57.08;101059.41;2870815;82;21422;-60
2021/05/30 14:26:51;;;;;;;2.42;1.07;;;;;;;19.37;57.39;101054.08;2849479;82;21100;-61
2021/05/30 14:30:52;;;;;;;1.22;1.12;;;;;;;19.62;56.52;101049.58;2847331;83;21049;-60
2021/05/30 14:34:54;;;;;;;1.57;1.47;;;;;;;19.87;56.83;101034.73;2847257;83;21084;-61
2021/05/30 14:38:56;;;;;;;3.27;1.25;;;;;;;19.93;55.47;101047.58;2847597;83;21672;-61
2021/05/30 14:42:59;;;;;;;1.05;0.78;;;;;;;19.76;54.31;101046.71;2847339;83;21057;-61
2021/05/30 14:47:01;;;;;;;2.25;1.40;;;;;;;19.79;54.97;101042.32;2847519;83;21570;-61
2021/05/30 14:51:04;;;;;;;1.57;1.12;;;;;;;19.96;51.51;101031.56;2847575;83;21065;-61
2021/05/30 14:55:07;;;;;;;2.55;1.15;;;;;;;20.12;55.25;101034.25;2847674;83;21053;-61
2021/05/30 14:59:09;;;;;;;2.47;1.92;;;;;;;19.96;53.76;101028.37;2847127;83;21112;-61
2021/05/30 15:03:11;;;;;;;2.67;1.30;;;;;;;19.55;55.50;101032.34;2846993;83;21043;-61
2021/05/30 15:07:13;;;;;;;2.22;1.67;;;;;;;19.15;55.62;101040.20;2847192;83;21065;-60
2021/05/30 15:11:15;;;;;;;1.57;1.47;;;;;;;18.65;58.66;101039.96;2846780;83;21045;-61
2021/05/30 15:15:17;;;;;;;6.97;1.82;;;;;;;18.28;58.38;101049.20;2846968;83;21586;-61
2021/05/30 15:19:20;;;;;;;1.98;1.77;;;;;;;18.03;59.28;101039.58;2846692;83;21104;-61
2021/05/30 15:23:22;;;;;;;5.83;1.50;;;;;;;17.84;59.33;101044.11;2846388;83;21097;-61
2021/05/30 15:27:29;;;;;;;1.60;1.07;;;;;;;17.71;58.00;101038.30;2846585;83;21070;-61
2021/05/30 15:31:31;;;;;;;3.70;1.47;;;;;;;17.63;58.47;101036.86;2846495;83;21061;-61
2021/05/30 15:35:33;;;;;;;1.72;1.62;;;;;;;17.68;59.90;101037.23;2838617;82;21080;-61
2021/05/30 15:39:35;;;;;;;1.77;1.67;;;;;;;17.78;58.98;101036.66;2838850;83;21454;-60
2021/05/30 15:43:39;;;;;;;1.52;1.42;;;;;;;17.97;60.59;101030.76;2838640;83;21073;-62
2021/05/30 15:47:41;;;;;;;2.72;1.45;;;;;;;18.16;58.24;101030.25;2838967;83;21065;-60
2021/05/30 15:51:46;;;;;;;2.27;1.60;;;;;;;18.35;59.00;101029.19;2839253;83;21017;-61
2021/05/30 15:55:49;;;;;;;1.55;1.15;;;;;;;18.54;57.86;101024.92;2839294;83;21602;-61
2021/05/30 15:59:51;;;;;;;1.50;1.05;;;;;;;18.70;56.79;101022.83;2839417;83;21515;-61
2021/05/30 16:03:53;;;;;;;1.55;1.35;;;;;;;18.89;55.48;101014.15;2839582;83;21052;-61
2021/05/30 16:07:58;;;;;;;1.17;1.00;;;;;;;19.07;53.53;101011.88;2839603;83;21077;-61
2021/05/30 16:12:00;;;;;;;1.73;0.97;;;;;;;19.12;52.17;101009.01;2839999;83;21097;-60
2021/05/30 16:16:02;;;;;;;1.67;0.98;;;;;;;19.30;52.44;101009.39;2839798;83;22277;-61
2021/05/30 16:20:06;;;;;;;1.12;1.02;;;;;;;19.35;52.22;101008.38;2839747;83;21904;-60
2021/05/30 16:24:09;;;;;;;1.45;1.05;;;;;;;19.41;53.66;101006.87;2839676;83;21085;-60
2021/05/30 16:28:11;;;;;;;3.65;1.52;;;;;;;19.29;53.08;101006.87;2839675;83;21057;-61
2021/05/30 16:32:12;;;;;;;2.72;0.90;;;;;;;19.07;53.72;101001.92;2839414;82;21041;-61
2021/05/30 16:36:14;;;;;;;1.60;1.20;;;;;;;18.91;54.52;101001.84;2839552;83;21036;-61
2021/05/30 16:40:16;;;;;;;2.30;0.95;;;;;;;18.69;54.45;101008.16;2839391;83;21092;-61
2021/05/30 16:44:18;;;;;;;3.15;1.65;;;;;;;18.58;56.27;101003.90;2839205;83;21069;-61
2021/05/30 16:48:22;;;;;;;1.90;1.42;;;;;;;18.47;56.29;101006.86;2839531;83;21084;-60
2021/05/30 16:52:23;;;;;;;1.55;1.45;;;;;;;18.40;57.01;101006.16;2839536;83;21561;-61
2021/05/30 16:56:25;;;;;;;1.37;1.10;;;;;;;18.37;57.33;101005.63;2839596;83;21500;-60
2021/05/30 17:00:27;;;;;;;2.27;1.00;;;;;;;18.29;58.15;101000.21;2839732;83;21562;-61
2021/05/30 17:04:29;;;;;;;3.15;1.72;;;;;;;18.26;58.29;101004.91;2839429;83;21092;-60
2021/05/30 17:08:31;;;;;;;9.70;3.02;;;;;;;18.23;60.35;100994.95;2839339;83;21069;-60
2021/05/30 17:12:33;;;;;;;1.98;1.70;;;;;;;18.18;60.74;100998.63;2839348;83;21088;-61
2021/05/30 17:16:35;;;;;;;2.08;1.50;;;;;;;18.06;59.33;100997.53;2839057;83;21033;-61
2021/05/30 17:20:37;;;;;;;6.03;2.67;;;;;;;17.99;58.27;100997.80;2831686;82;21032;-61
2021/05/30 17:24:39;;;;;;;2.05;1.42;;;;;;;17.93;59.08;100999.78;2820847;82;21095;-63
2021/05/30 17:28:42;;;;;;;5.22;1.42;;;;;;;17.88;59.45;100996.20;2792140;83;21076;-61
2021/05/30 17:32:43;;;;;;;5.45;2.45;;;;;;;17.83;59.12;100993.98;2794221;84;21080;-60
2021/05/30 17:36:45;;;;;;;4.87;1.90;;;;;;;17.75;59.09;100992.58;2793802;85;21100;-60
2021/05/30 17:40:47;;;;;;;1.85;1.70;;;;;;;17.68;58.80;100989.66;2793522;84;21108;-60
2021/05/30 17:44:49;;;;;;;3.22;2.22;;;;;;;17.66;59.15;100988.98;2793337;84;21148;-61
2021/05/30 17:48:52;;;;;;;1.90;1.65;;;;;;;17.59;60.21;100989.27;2793409;85;24216;-60
2021/05/30 17:52:53;;;;;;;1.70;1.60;;;;;;;17.51;60.10;100985.14;2793575;85;21092;-60
2021/05/30 17:56:55;;;;;;;2.08;1.82;;;;;;;17.34;59.41;100978.78;2812395;82;21053;-60
2021/05/30 18:00:57;;;;;;;3.20;1.45;;;;;;;17.17;60.20;100983.98;2840906;83;21088;-60
2021/05/30 18:04:59;;;;;;;3.72;1.98;;;;;;;17.02;61.21;100979.64;2840670;83;21096;-61
2021/05/30 18:09:02;;;;;;;3.12;1.52;;;;;;;16.82;62.22;100984.23;2841044;83;21069;-60
2021/05/30 18:13:04;;;;;;;4.75;2.58;;;;;;;16.70;62.72;100984.45;2840638;83;21088;-61
2021/05/30 18:17:06;;;;;;;3.27;2.98;;;;;;;16.58;64.46;100981.60;2840729;83;21088;-60
2021/05/30 18:21:09;;;;;;;5.58;2.70;;;;;;;16.43;64.69;100994.67;2840595;83;21065;-61
2021/05/30 18:25:13;;;;;;;3.33;3.00;;;;;;;16.18;64.27;100988.94;2819914;83;21132;-62
2021/05/30 18:29:15;;;;;;;16.42;4.03;;;;;;;15.98;64.54;100981.44;2840348;82;21091;-61
2021/05/30 18:33:18;;;;;;;5.25;2.65;;;;;;;15.80;65.54;100978.12;2838331;82;21049;-64
2021/05/30 18:37:20;;;;;;;4.70;2.50;;;;;;;15.64;66.20;100984.07;2838282;83;21053;-61
2021/05/30 18:41:22;;;;;;;3.27;2.83;;;;;;;15.46;66.99;100974.53;2837027;83;21021;-61
2021/05/30 18:45:24;;;;;;;2.62;2.25;;;;;;;15.27;67.36;100980.23;2837342;83;21041;-61
2021/05/30 18:49:26;;;;;;;3.50;2.30;;;;;;;15.13;67.48;100979.30;2837612;83;21116;-60
2021/05/30 18:53:28;;;;;;;3.87;2.62;;;;;;;15.02;67.82;100978.92;2837403;83;21100;-61
2021/05/30 18:57:30;;;;;;;5.80;3.12;;;;;;;14.88;68.40;100981.50;2831463;83;21107;-59
2021/05/30 19:01:31;;;;;;;4.30;2.92;;;;;;;14.76;69.01;100985.30;2826469;84;21341;-60